createdAt,value
2022-12-23T00:04:31.311Z,58.80
2022-12-23T00:09:34.742Z,58.61
2022-12-23T00:14:38.302Z,58.69
2022-12-23T00:19:41.821Z,58.78
2022-12-23T00:24:45.939Z,58.51
2022-12-23T00:29:49.188Z,58.30
2022-12-23T00:34:52.211Z,58.43
2022-12-23T00:39:56.972Z,58.15
2022-12-23T00:45:03.394Z,58.21
2022-12-23T00:50:07.716Z,58.10
2022-12-23T00:55:11.070Z,57.85
2022-12-23T01:00:15.956Z,58.09
2022-12-23T01:05:19.786Z,57.97
2022-12-23T01:10:23.128Z,57.53
2022-12-23T01:15:26.162Z,58.13
2022-12-23T01:20:29.359Z,57.92
2022-12-23T01:25:32.577Z,57.87
2022-12-23T01:30:35.584Z,58.12
2022-12-23T01:35:38.812Z,57.85
2022-12-23T01:40:45.157Z,58.25
2022-12-23T01:45:48.808Z,58.16
2022-12-23T01:50:54.135Z,58.19
2022-12-23T01:56:06.864Z,58.18
2022-12-23T02:01:11.620Z,58.18
2022-12-23T02:06:22.745Z,58.30
2022-12-23T02:11:45.575Z,58.47
2022-12-23T02:17:03.973Z,58.21
2022-12-23T02:22:19.280Z,58.56
2022-12-23T02:27:43.337Z,58.70
2022-12-23T02:33:41.139Z,58.71
2022-12-23T02:39:06.929Z,58.70
2022-12-23T02:44:27.595Z,58.76
2022-12-23T02:49:34.782Z,58.63
2022-12-23T02:55:00.513Z,58.76
2022-12-23T03:00:06.274Z,59.21
2022-12-23T03:05:46.797Z,59.19
2022-12-23T03:11:09.310Z,59.69
2022-12-23T03:16:44.962Z,59.97
2022-12-23T03:21:48.072Z,60.36
2022-12-23T03:27:17.554Z,59.87
2022-12-23T03:32:23.395Z,59.59
2022-12-23T03:37:30.559Z,59.40
2022-12-23T03:42:40.927Z,59.81
2022-12-23T03:47:48.955Z,59.85
2022-12-23T03:52:56.602Z,60.00
2022-12-23T03:58:14.750Z,59.81
2022-12-23T04:03:53.077Z,59.95
2022-12-23T04:08:57.766Z,59.78
2022-12-23T04:14:01.459Z,60.02
2022-12-23T04:19:04.950Z,60.07
2022-12-23T04:24:08.663Z,60.18
2022-12-23T04:29:12.304Z,60.12
2022-12-23T04:34:16.155Z,59.81
2022-12-23T04:39:21.058Z,60.13
2022-12-23T04:44:24.554Z,60.13
2022-12-23T04:49:27.994Z,59.90
2022-12-23T04:54:31.540Z,59.55
2022-12-23T04:59:35.116Z,59.45
2022-12-23T05:04:38.675Z,59.34
2022-12-23T05:09:42.312Z,59.12
2022-12-23T05:14:45.871Z,58.92
2022-12-23T05:19:49.838Z,58.87
2022-12-23T05:24:53.237Z,58.81
2022-12-23T05:29:56.539Z,58.84
2022-12-23T05:35:00.513Z,58.80
2022-12-23T05:40:04.304Z,58.97
2022-12-23T05:45:09.716Z,58.74
2022-12-23T05:50:13.855Z,58.69
2022-12-23T05:55:19.766Z,58.70
2022-12-23T06:00:23.526Z,58.58
2022-12-23T06:05:26.911Z,58.31
2022-12-23T06:10:30.295Z,58.18
2022-12-23T06:15:33.525Z,58.55
2022-12-23T06:20:36.911Z,58.31
2022-12-23T06:25:40.737Z,57.88
2022-12-23T06:30:44.061Z,58.03
2022-12-23T06:35:48.330Z,57.42
2022-12-23T06:40:53.179Z,56.95
2022-12-23T06:45:57.101Z,56.80
2022-12-23T06:51:00.722Z,56.49
2022-12-23T06:56:05.047Z,56.63
2022-12-23T07:01:10.127Z,56.11
2022-12-23T07:06:14.130Z,55.94
2022-12-23T07:11:17.533Z,55.58
2022-12-23T07:16:20.954Z,55.49
2022-12-23T07:21:29.446Z,55.31
2022-12-23T07:26:33.591Z,55.63
2022-12-23T07:31:40.710Z,55.83
2022-12-23T07:36:44.920Z,56.03
2022-12-23T07:41:55.499Z,55.96
2022-12-23T07:47:07.323Z,55.51
2022-12-23T07:52:11.043Z,55.64
2022-12-23T07:57:14.476Z,55.45
2022-12-23T08:02:18.033Z,55.84
2022-12-23T08:07:21.603Z,56.23
2022-12-23T08:12:25.557Z,56.40
2022-12-23T08:17:30.601Z,56.58
2022-12-23T08:22:33.920Z,56.61
2022-12-23T08:27:37.101Z,57.03
2022-12-23T08:32:40.118Z,56.73
2022-12-23T08:37:43.989Z,56.66
2022-12-23T08:42:47.356Z,56.34
2022-12-23T08:47:50.662Z,56.33
2022-12-23T08:52:53.891Z,56.24
2022-12-23T08:57:57.326Z,56.31
2022-12-23T09:03:04.444Z,56.34
2022-12-23T09:08:09.589Z,55.50
2022-12-23T09:13:22.317Z,55.12
2022-12-23T09:18:31.411Z,55.58
2022-12-23T09:23:35.228Z,55.40
2022-12-23T09:28:40.181Z,55.44
2022-12-23T09:33:46.682Z,55.44
2022-12-23T09:38:58.052Z,55.08
2022-12-23T09:44:02.375Z,54.71
2022-12-23T09:49:13.108Z,54.40
2022-12-23T09:54:27.914Z,54.19
2022-12-23T09:59:49.472Z,54.04
2022-12-23T10:05:11.788Z,53.88
2022-12-23T10:10:39.608Z,54.08
2022-12-23T10:15:50.473Z,53.87
2022-12-23T10:21:03.508Z,53.60
2022-12-23T10:26:20.986Z,53.63
2022-12-23T10:31:42.028Z,53.77
2022-12-23T10:36:57.174Z,54.08
2022-12-23T10:42:40.847Z,53.70
2022-12-23T10:48:14.399Z,53.57
2022-12-23T10:53:37.726Z,53.54
2022-12-23T10:58:45.062Z,53.67
2022-12-23T11:04:06.456Z,53.50
2022-12-23T11:09:20.882Z,53.80
2022-12-23T11:14:43.098Z,53.52
2022-12-23T11:19:46.784Z,53.76
2022-12-23T11:24:50.891Z,53.52
2022-12-23T11:29:55.331Z,53.67
2022-12-23T11:35:01.185Z,53.47
2022-12-23T11:40:06.938Z,53.66
2022-12-23T11:45:10.484Z,53.90
2022-12-23T11:50:36.194Z,54.06
2022-12-23T11:55:46.740Z,53.71
2022-12-23T12:00:56.995Z,54.28
2022-12-23T12:06:04.543Z,54.43
2022-12-23T12:11:17.823Z,54.39
2022-12-23T12:16:31.627Z,53.91
2022-12-23T12:21:39.061Z,54.16
2022-12-23T12:26:46.329Z,53.90
2022-12-23T12:31:53.724Z,54.17
2022-12-23T12:37:07.322Z,54.23
2022-12-23T12:42:20.834Z,54.35
2022-12-23T12:48:11.669Z,54.54
2022-12-23T12:53:22.803Z,54.06
2022-12-23T12:58:26.399Z,54.26
2022-12-23T13:04:05.102Z,54.21
2022-12-23T13:09:28.241Z,54.33
2022-12-23T13:14:31.529Z,54.45
2022-12-23T13:19:56.155Z,54.82
2022-12-23T13:25:05.730Z,54.43
2022-12-23T13:30:20.682Z,54.90
2022-12-23T13:35:33.240Z,54.65
2022-12-23T13:41:13.136Z,55.07
2022-12-23T13:46:27.195Z,55.13
2022-12-23T13:51:40.753Z,55.22
2022-12-23T13:56:53.349Z,54.93
2022-12-23T14:01:56.773Z,55.04
2022-12-23T14:07:25.737Z,55.03
2022-12-23T14:12:36.278Z,55.52
2022-12-23T14:18:10.906Z,55.51
2022-12-23T14:23:30.480Z,55.70
2022-12-23T14:28:48.918Z,55.98
2022-12-23T14:33:52.933Z,55.80
2022-12-23T14:39:14.381Z,56.02
2022-12-23T14:44:42.069Z,56.00
2022-12-23T14:49:45.485Z,56.08
2022-12-23T14:55:06.420Z,56.12
2022-12-23T15:00:13.594Z,56.31
2022-12-23T15:05:23.203Z,56.01
2022-12-23T15:10:28.096Z,55.87
2022-12-23T15:15:32.356Z,55.88
2022-12-23T15:20:35.786Z,56.03
2022-12-23T15:25:44.589Z,55.32
2022-12-23T15:30:53.505Z,55.09
2022-12-23T15:35:57.758Z,55.11
2022-12-23T15:41:04.336Z,55.12
2022-12-23T15:46:10.825Z,54.66
2022-12-23T15:51:58.254Z,54.85
2022-12-23T15:56:54.648Z,54.44
2022-12-23T16:01:58.656Z,54.13
2022-12-23T16:07:03.101Z,54.11
2022-12-23T16:12:27.318Z,54.08
2022-12-23T16:17:35.275Z,53.78
2022-12-23T16:22:38.736Z,53.68
2022-12-23T16:27:47.566Z,53.26
2022-12-23T16:32:55.278Z,52.86
2022-12-23T16:38:14.475Z,52.93
2022-12-23T16:43:19.883Z,52.67
2022-12-23T16:48:35.580Z,52.60
2022-12-23T16:53:39.153Z,52.76
2022-12-23T16:58:43.698Z,52.70
2022-12-23T17:03:47.814Z,52.57
2022-12-23T17:08:53.732Z,52.69
2022-12-23T17:14:03.485Z,52.79
2022-12-23T17:19:08.126Z,52.62
2022-12-23T17:24:23.414Z,53.02
2022-12-23T17:29:26.892Z,53.02
2022-12-23T17:34:30.954Z,53.16
2022-12-23T17:39:34.752Z,53.04
2022-12-23T17:44:38.384Z,53.10
2022-12-23T17:49:42.544Z,53.66
2022-12-23T17:54:49.572Z,53.66
2022-12-23T17:59:54.642Z,53.65
2022-12-23T18:04:58.148Z,53.42
2022-12-23T18:10:01.522Z,53.49
2022-12-23T18:15:08.270Z,53.40
2022-12-23T18:20:20.780Z,53.15
2022-12-23T18:25:26.855Z,53.80
2022-12-23T18:30:30.500Z,53.34
2022-12-23T18:35:38.528Z,53.42
2022-12-23T18:40:43.235Z,53.68
2022-12-23T18:45:52.479Z,53.52
2022-12-23T18:50:56.867Z,53.31
2022-12-23T18:56:00.496Z,53.39
2022-12-23T19:01:04.841Z,53.20
2022-12-23T19:06:10.412Z,53.30
2022-12-23T19:11:19.087Z,53.36
2022-12-23T19:16:22.686Z,53.45
2022-12-23T19:21:26.394Z,53.47
2022-12-23T19:26:29.740Z,53.22
2022-12-23T19:31:32.904Z,53.69
2022-12-23T19:36:36.356Z,53.62
2022-12-23T19:41:40.731Z,53.66
2022-12-23T19:46:44.524Z,53.61
2022-12-23T19:51:48.818Z,53.78
2022-12-23T19:56:52.423Z,53.87
2022-12-23T20:01:56.768Z,53.93
2022-12-23T20:07:00.439Z,54.22
2022-12-23T20:12:04.248Z,54.28
2022-12-23T20:17:07.749Z,54.25
2022-12-23T20:22:11.633Z,54.34
2022-12-23T20:27:16.262Z,54.47
2022-12-23T20:32:21.339Z,54.51
2022-12-23T20:37:25.564Z,54.70
2022-12-23T20:42:29.150Z,54.68
2022-12-23T20:47:33.855Z,54.84
2022-12-23T20:52:37.690Z,55.18
2022-12-23T20:57:44.248Z,55.34
2022-12-23T21:02:47.751Z,55.67
2022-12-23T21:07:51.260Z,55.49
2022-12-23T21:12:54.605Z,55.87
2022-12-23T21:17:57.939Z,55.59
2022-12-23T21:23:01.406Z,55.86
2022-12-23T21:28:06.005Z,56.08
2022-12-23T21:33:09.349Z,55.89
2022-12-23T21:38:12.836Z,56.10
2022-12-23T21:43:16.624Z,56.46
2022-12-23T21:48:22.892Z,56.53
2022-12-23T21:53:26.365Z,56.85
2022-12-23T21:58:30.199Z,57.02
2022-12-23T22:03:33.596Z,57.16
2022-12-23T22:08:36.816Z,56.85
2022-12-23T22:13:40.777Z,57.31
2022-12-23T22:18:45.493Z,57.19
2022-12-23T22:23:50.530Z,57.49
2022-12-23T22:28:59.729Z,58.02
2022-12-23T22:34:05.357Z,57.49
2022-12-23T22:39:10.808Z,57.46
2022-12-23T22:44:16.518Z,57.26
2022-12-23T22:49:19.981Z,57.16
2022-12-23T22:54:23.347Z,57.52
2022-12-23T22:59:26.506Z,57.53
2022-12-23T23:04:30.367Z,57.50
2022-12-23T23:09:33.954Z,57.68
2022-12-23T23:14:37.267Z,57.91
2022-12-23T23:19:40.373Z,57.65
2022-12-23T23:24:44.507Z,58.06
2022-12-23T23:29:47.998Z,58.37
2022-12-23T23:34:51.330Z,58.61
2022-12-23T23:39:54.728Z,59.04
2022-12-23T23:44:57.870Z,58.45
2022-12-23T23:50:01.370Z,58.61
2022-12-23T23:55:06.097Z,58.72
